Epworth, Illinois
Current Conditions -  °F | °C
As of 12:15 PM on Wednesday 28 Jan 2015 (Local Time) from KCUL Reporting Station
Clear Clear  
Wind Chill: 34°   Ceiling: Unl
Heat Index: 41°   Visibility: 10mi
Dew Point: 31°   Wind: 12mph
Humidity: 68%   Direction: 130°SE
Pressure: 30.27"   Gusts: 18mph
Location:  38.0491°N, 88.1124°W
Report Text: KCUL 281815Z AUTO 13010G16KT 10SM CLR 05/M01 A3027 RMK AO2 T00491006
Loading
Personal Weather Stations






























Interactive Weather Map New forecast layout! Learn more

10-Day Weather Forecast

Advertisements
Track Severe Weather on mobile